Hatteras, North Carolina
Current Conditions -  °F | °C
As of 6:51 AM on Friday 21 Nov 2014 (Local Time) from KHSE Reporting Station
Clear Clear  
Wind Chill: 39°   Ceiling: Unl
Heat Index: 44°   Visibility: 10mi
Dew Point: 29°   Wind: 10mph
Humidity: 55%   Direction: 330°NNW
Pressure: 30.26"   Gusts: 16mph
Location:  35.22°N, 75.69°W
Report Text: KHSE 211151Z AUTO 33009G14KT 10SM CLR 07/M02 A3026 RMK AO2 SLP247 T00671017 10100 20067 53024 TSNO
Loading
Personal Weather Stations






























Interactive Weather Map New forecast layout! Learn more

10-Day Weather Forecast

Advertisements
Track Severe Weather on mobile